createdAt,value
2019-04-03T00:02:18.357Z,8.72
2019-04-03T00:04:49.181Z,8.65
2019-04-03T00:07:19.823Z,8.55
2019-04-03T00:09:50.537Z,8.54
2019-04-03T00:12:21.905Z,8.48
2019-04-03T00:14:52.558Z,8.44
2019-04-03T00:17:23.278Z,8.39
2019-04-03T00:19:56.334Z,8.40
2019-04-03T00:22:26.946Z,8.45
2019-04-03T00:24:57.908Z,8.76
2019-04-03T00:27:28.556Z,8.99
2019-04-03T00:29:59.341Z,9.13
2019-04-03T00:32:30.036Z,9.27
2019-04-03T00:35:00.657Z,9.35
2019-04-03T00:37:31.720Z,9.41
2019-04-03T00:40:02.345Z,9.47
2019-04-03T00:42:33.104Z,9.45
2019-04-03T00:45:03.719Z,9.40
2019-04-03T00:47:34.794Z,9.42
2019-04-03T00:50:06.053Z,9.52
2019-04-03T00:52:37.616Z,9.49
2019-04-03T00:55:08.206Z,9.38
2019-04-03T00:57:41.508Z,9.27
2019-04-03T01:00:14.529Z,9.16
2019-04-03T01:02:45.259Z,9.13
2019-04-03T01:05:15.995Z,9.05
2019-04-03T01:07:47.334Z,9.03
2019-04-03T01:10:20.739Z,8.97
2019-04-03T01:12:52.740Z,8.91
2019-04-03T01:15:23.508Z,8.78
2019-04-03T01:17:54.146Z,8.44
2019-04-03T01:20:25.114Z,8.36
2019-04-03T01:22:55.748Z,8.34
2019-04-03T01:25:26.372Z,8.37
2019-04-03T01:28:00.128Z,8.32
2019-04-03T01:30:32.509Z,8.31
2019-04-03T01:33:03.567Z,8.24
2019-04-03T01:35:34.197Z,8.03
2019-04-03T01:38:06.470Z,7.97
2019-04-03T01:40:37.285Z,7.96
2019-04-03T01:43:07.982Z,8.05
2019-04-03T01:45:38.716Z,8.13
2019-04-03T01:48:10.125Z,8.13
2019-04-03T01:50:40.919Z,8.07
2019-04-03T01:53:11.572Z,7.94
2019-04-03T01:55:42.212Z,7.81
2019-04-03T01:58:12.916Z,7.79
2019-04-03T02:00:43.590Z,7.76
2019-04-03T02:03:14.456Z,7.74
2019-04-03T02:05:45.086Z,7.72
2019-04-03T02:08:15.888Z,7.69
2019-04-03T02:10:48.231Z,7.64
2019-04-03T02:13:21.137Z,7.47
2019-04-03T02:15:52.556Z,7.46
2019-04-03T02:18:25.319Z,7.48
2019-04-03T02:20:57.759Z,7.52
2019-04-03T02:23:28.916Z,7.49
2019-04-03T02:26:02.419Z,7.47
2019-04-03T02:28:35.276Z,7.55
2019-04-03T02:31:05.947Z,7.53
2019-04-03T02:33:36.576Z,7.47
2019-04-03T02:36:11.030Z,7.43
2019-04-03T02:38:42.621Z,7.41
2019-04-03T02:41:13.270Z,7.35
2019-04-03T02:43:46.284Z,7.30
2019-04-03T02:46:16.955Z,7.34
2019-04-03T02:48:47.836Z,7.60
2019-04-03T02:51:19.673Z,7.86
2019-04-03T02:53:51.385Z,7.91
2019-04-03T02:56:22.354Z,7.83
2019-04-03T02:58:54.799Z,7.68
2019-04-03T03:01:25.789Z,7.63
2019-04-03T03:03:56.437Z,7.60
2019-04-03T03:06:27.300Z,7.55
2019-04-03T03:08:58.416Z,7.56
2019-04-03T03:11:29.720Z,7.58
2019-04-03T03:14:00.550Z,7.62
2019-04-03T03:16:31.489Z,7.63
2019-04-03T03:19:05.375Z,7.66
2019-04-03T03:21:37.535Z,7.73
2019-04-03T03:24:08.723Z,7.78
2019-04-03T03:26:39.411Z,7.78
2019-04-03T03:29:17.646Z,7.77
2019-04-03T03:32:05.319Z,7.72
2019-04-03T03:34:16.829Z,7.64
2019-04-03T03:36:48.857Z,7.63
2019-04-03T03:39:19.905Z,7.59
2019-04-03T03:41:50.584Z,7.57
2019-04-03T03:44:22.806Z,7.52
2019-04-03T03:46:53.591Z,7.44
2019-04-03T03:49:25.470Z,7.39
2019-04-03T03:51:57.025Z,7.38
2019-04-03T03:54:27.913Z,7.38
2019-04-03T03:57:04.351Z,7.39
2019-04-03T03:59:32.037Z,7.39
2019-04-03T04:02:05.329Z,7.39
2019-04-03T04:04:35.154Z,7.36
2019-04-03T04:07:06.161Z,7.26
2019-04-03T04:09:36.758Z,7.25
2019-04-03T04:12:08.013Z,7.24
2019-04-03T04:14:38.726Z,7.21
2019-04-03T04:17:15.100Z,7.19
2019-04-03T04:19:41.761Z,7.18
2019-04-03T04:22:15.545Z,7.19
2019-04-03T04:24:44.938Z,7.14
2019-04-03T04:27:27.136Z,7.14
2019-04-03T04:29:58.097Z,7.11
2019-04-03T04:32:29.133Z,7.11
2019-04-03T04:34:59.785Z,7.08
2019-04-03T04:37:30.465Z,7.10
2019-04-03T04:40:07.763Z,7.06
2019-04-03T04:42:38.433Z,7.08
2019-04-03T04:45:09.801Z,7.08
2019-04-03T04:47:42.350Z,7.07
2019-04-03T04:50:13.269Z,7.11
2019-04-03T04:52:44.497Z,7.06
2019-04-03T04:55:15.220Z,7.06
2019-04-03T04:57:45.881Z,7.13
2019-04-03T05:00:16.868Z,7.19
2019-04-03T05:02:48.837Z,7.22
2019-04-03T05:05:21.435Z,7.19
2019-04-03T05:07:52.454Z,7.15
2019-04-03T05:10:23.510Z,7.07
2019-04-03T05:12:54.340Z,7.02
2019-04-03T05:15:27.508Z,6.99
2019-04-03T05:17:58.379Z,6.96
2019-04-03T05:20:29.076Z,6.93
2019-04-03T05:23:04.372Z,6.87
2019-04-03T05:25:35.145Z,6.87
2019-04-03T05:28:05.762Z,6.91
2019-04-03T05:30:40.453Z,6.94
2019-04-03T05:33:11.874Z,6.99
2019-04-03T05:35:45.641Z,7.01
2019-04-03T05:38:21.699Z,7.01
2019-04-03T05:40:51.619Z,7.03
2019-04-03T05:43:22.654Z,7.03
2019-04-03T05:45:53.300Z,7.08
2019-04-03T05:48:24.017Z,7.12
2019-04-03T05:50:57.640Z,7.16
2019-04-03T05:53:30.295Z,7.19
2019-04-03T05:56:02.284Z,7.20
2019-04-03T05:58:33.068Z,7.22
2019-04-03T06:01:06.417Z,7.21
2019-04-03T06:03:44.286Z,7.20
2019-04-03T06:06:17.196Z,7.17
2019-04-03T06:08:51.837Z,7.19
2019-04-03T06:11:24.973Z,7.25
2019-04-03T06:13:55.613Z,7.31
2019-04-03T06:16:26.429Z,7.29
2019-04-03T06:18:59.958Z,7.34
2019-04-03T06:21:30.786Z,7.47
2019-04-03T06:24:01.992Z,7.61
2019-04-03T06:26:33.067Z,7.71
2019-04-03T06:29:04.953Z,7.80
2019-04-03T06:31:36.098Z,7.95
2019-04-03T06:34:08.126Z,8.06
2019-04-03T06:36:42.752Z,8.16
2019-04-03T06:39:14.469Z,8.26
2019-04-03T06:41:51.239Z,8.35
2019-04-03T06:44:25.642Z,8.42
2019-04-03T06:46:56.469Z,8.54
2019-04-03T06:49:27.140Z,8.67
2019-04-03T06:52:00.270Z,8.78
2019-04-03T06:54:33.697Z,8.95
2019-04-03T06:57:04.323Z,9.18
2019-04-03T06:59:35.301Z,9.40
2019-04-03T07:02:07.767Z,9.61
2019-04-03T07:04:41.729Z,9.83
2019-04-03T07:07:12.380Z,10.01
2019-04-03T07:09:44.883Z,10.23
2019-04-03T07:12:17.756Z,10.47
2019-04-03T07:14:51.409Z,10.55
2019-04-03T07:17:26.231Z,10.72
2019-04-03T07:19:56.946Z,10.80
2019-04-03T07:22:28.318Z,10.92
2019-04-03T07:24:59.340Z,11.05
2019-04-03T07:27:30.333Z,11.16
2019-04-03T07:30:21.763Z,11.28
2019-04-03T07:33:05.822Z,11.35
2019-04-03T07:35:47.052Z,11.54
2019-04-03T07:38:18.102Z,11.76
2019-04-03T07:40:53.151Z,11.84
2019-04-03T07:43:26.352Z,11.83
2019-04-03T07:46:09.154Z,11.83
2019-04-03T07:48:40.424Z,11.90
2019-04-03T07:51:12.944Z,11.97
2019-04-03T07:53:48.893Z,12.02
2019-04-03T07:56:19.319Z,12.08
2019-04-03T07:58:53.594Z,12.16
2019-04-03T08:01:24.814Z,12.29
2019-04-03T08:03:55.504Z,12.46
2019-04-03T08:06:26.734Z,12.58
2019-04-03T08:09:07.998Z,12.73
2019-04-03T08:11:32.427Z,12.83
2019-04-03T08:14:02.837Z,12.82
2019-04-03T08:16:33.468Z,12.76
2019-04-03T08:19:04.079Z,12.81
2019-04-03T08:21:34.954Z,12.81
2019-04-03T08:24:08.032Z,12.98
2019-04-03T08:26:51.966Z,13.22
2019-04-03T08:29:23.767Z,13.43
2019-04-03T08:32:13.737Z,13.54
2019-04-03T08:34:48.945Z,13.70
2019-04-03T08:37:29.535Z,13.57
2019-04-03T08:39:52.149Z,13.37
2019-04-03T08:42:23.338Z,13.31
2019-04-03T08:44:56.875Z,13.28
2019-04-03T08:47:27.548Z,13.29
2019-04-03T08:50:01.357Z,13.39
2019-04-03T08:52:32.476Z,13.34
2019-04-03T08:55:03.760Z,13.37
2019-04-03T08:57:34.815Z,13.22
2019-04-03T09:00:10.244Z,13.23
2019-04-03T09:02:43.663Z,13.24
2019-04-03T09:05:14.504Z,13.21
2019-04-03T09:07:45.528Z,13.08
2019-04-03T09:10:16.991Z,13.23
2019-04-03T09:12:47.975Z,13.42
2019-04-03T09:15:19.127Z,13.50
2019-04-03T09:17:49.917Z,13.38
2019-04-03T09:20:20.591Z,13.38
2019-04-03T09:22:53.845Z,13.35
2019-04-03T09:25:25.328Z,13.32
2019-04-03T09:27:56.241Z,13.22
2019-04-03T09:30:28.675Z,13.22
2019-04-03T09:33:03.720Z,13.17
2019-04-03T09:35:34.371Z,13.10
2019-04-03T09:38:09.538Z,13.12
2019-04-03T09:40:39.612Z,13.08
2019-04-03T09:43:13.071Z,13.17
2019-04-03T09:45:44.263Z,13.17
2019-04-03T09:48:19.234Z,13.24
2019-04-03T09:50:50.390Z,13.39
2019-04-03T09:53:21.386Z,13.54
2019-04-03T09:55:52.464Z,13.83
2019-04-03T09:58:23.138Z,14.09
2019-04-03T10:01:18.406Z,14.37
2019-04-03T10:04:05.981Z,14.49
2019-04-03T10:06:55.256Z,14.54
2019-04-03T10:10:09.369Z,14.54
2019-04-03T10:12:55.868Z,14.63
2019-04-03T10:15:49.887Z,14.87
2019-04-03T10:18:23.410Z,14.72
2019-04-03T10:20:54.611Z,14.77
2019-04-03T10:23:29.224Z,14.85
2019-04-03T10:26:02.869Z,14.84
2019-04-03T10:28:34.539Z,15.04
2019-04-03T10:31:08.313Z,15.19
2019-04-03T10:33:39.747Z,15.51
2019-04-03T10:36:11.951Z,15.74
2019-04-03T10:38:43.623Z,16.08
2019-04-03T10:41:14.449Z,16.46
2019-04-03T10:43:46.997Z,16.79
2019-04-03T10:46:20.056Z,17.05
2019-04-03T10:48:51.251Z,17.49
2019-04-03T10:51:24.472Z,17.86
2019-04-03T10:53:59.856Z,18.09
2019-04-03T10:56:31.212Z,18.23
2019-04-03T10:59:10.995Z,18.36
2019-04-03T11:01:35.603Z,18.39
2019-04-03T11:04:07.822Z,18.22
2019-04-03T11:06:38.487Z,18.34
2019-04-03T11:09:12.278Z,18.78
2019-04-03T11:11:45.415Z,19.00
2019-04-03T11:14:17.846Z,19.30
2019-04-03T11:16:49.860Z,19.10
2019-04-03T11:19:27.058Z,18.86
2019-04-03T11:21:58.245Z,18.99
2019-04-03T11:24:29.417Z,19.33
2019-04-03T11:27:12.501Z,19.31
2019-04-03T11:29:47.328Z,19.56
2019-04-03T11:32:23.171Z,19.76
2019-04-03T11:34:54.513Z,20.10
2019-04-03T11:37:26.861Z,20.28
2019-04-03T11:40:26.310Z,20.29
2019-04-03T11:43:24.965Z,19.98
2019-04-03T11:45:59.559Z,20.33
2019-04-03T11:48:31.247Z,20.15
2019-04-03T11:51:04.216Z,20.06
2019-04-03T11:53:36.012Z,19.45
2019-04-03T11:56:07.531Z,19.23
2019-04-03T11:58:38.811Z,19.28
2019-04-03T12:01:10.965Z,19.21
2019-04-03T12:03:42.874Z,19.13
2019-04-03T12:06:20.222Z,19.03
2019-04-03T12:08:54.657Z,18.70
2019-04-03T12:11:25.504Z,18.86
2019-04-03T12:13:59.435Z,19.11
2019-04-03T12:16:31.111Z,19.32
2019-04-03T12:19:06.028Z,19.31
2019-04-03T12:21:42.343Z,19.33
2019-04-03T12:24:19.288Z,19.06
2019-04-03T12:26:50.477Z,18.75
2019-04-03T12:29:24.167Z,18.37
2019-04-03T12:32:02.778Z,18.28
2019-04-03T12:34:37.224Z,18.21
2019-04-03T12:37:10.598Z,18.07
2019-04-03T12:39:41.992Z,17.92
2019-04-03T12:42:17.725Z,17.98
2019-04-03T12:44:54.714Z,18.07
2019-04-03T12:47:28.444Z,17.95
2019-04-03T12:49:59.852Z,18.05
2019-04-03T12:52:31.355Z,18.04
2019-04-03T12:55:05.225Z,18.02
2019-04-03T12:57:38.714Z,17.91
2019-04-03T13:00:12.010Z,18.08
2019-04-03T13:02:52.498Z,17.87
2019-04-03T13:05:24.330Z,17.94
2019-04-03T13:07:59.574Z,17.86
2019-04-03T13:10:40.294Z,17.54
2019-04-03T13:13:03.444Z,17.43
2019-04-03T13:15:41.392Z,17.66
2019-04-03T13:18:39.315Z,18.02
2019-04-03T13:21:16.407Z,18.08
2019-04-03T13:23:47.806Z,18.01
2019-04-03T13:26:19.720Z,17.78
2019-04-03T13:28:51.429Z,17.66
2019-04-03T13:31:23.009Z,17.49
2019-04-03T13:33:58.183Z,17.43
2019-04-03T13:36:34.524Z,17.46
2019-04-03T13:39:07.534Z,17.41
2019-04-03T13:41:43.148Z,17.49
2019-04-03T13:44:20.960Z,17.50
2019-04-03T13:46:55.313Z,17.65
2019-04-03T13:49:29.324Z,17.82
2019-04-03T13:52:05.546Z,17.87
2019-04-03T13:54:39.592Z,17.91
2019-04-03T13:57:20.504Z,17.78
2019-04-03T14:00:00.980Z,17.69
2019-04-03T14:02:30.929Z,17.60
2019-04-03T14:05:02.997Z,17.45
2019-04-03T14:07:35.274Z,17.53
2019-04-03T14:10:11.977Z,17.42
2019-04-03T14:12:45.875Z,17.35
2019-04-03T14:15:20.404Z,17.35
2019-04-03T14:17:57.692Z,17.21
2019-04-03T14:20:30.147Z,17.22
2019-04-03T14:23:04.267Z,17.21
2019-04-03T14:25:39.192Z,17.27
2019-04-03T14:28:15.029Z,17.32
2019-04-03T14:30:51.883Z,17.32
2019-04-03T14:33:27.370Z,17.20
2019-04-03T14:36:02.461Z,17.08
2019-04-03T14:38:41.525Z,16.90
2019-04-03T14:41:17.305Z,16.85
2019-04-03T14:43:50.886Z,16.85
2019-04-03T14:46:31.841Z,16.74
2019-04-03T14:49:04.281Z,16.66
2019-04-03T14:51:36.439Z,16.66
2019-04-03T14:54:09.026Z,16.72
2019-04-03T14:56:48.169Z,16.61
2019-04-03T14:59:21.796Z,16.60
2019-04-03T15:01:56.242Z,16.53
2019-04-03T15:04:27.842Z,16.42
2019-04-03T15:07:08.862Z,16.36
2019-04-03T15:09:39.179Z,16.35
2019-04-03T15:12:13.513Z,16.32
2019-04-03T15:14:50.358Z,16.33
2019-04-03T15:17:22.543Z,16.27
2019-04-03T15:19:56.161Z,16.23
2019-04-03T15:22:28.212Z,16.17
2019-04-03T15:25:03.112Z,16.13
2019-04-03T15:27:34.717Z,16.16
2019-04-03T15:30:11.458Z,16.30
2019-04-03T15:32:51.459Z,16.42
2019-04-03T15:35:22.436Z,16.38
2019-04-03T15:37:57.514Z,16.29
2019-04-03T15:41:08.119Z,16.23
2019-04-03T15:43:53.726Z,16.12
2019-04-03T15:46:28.426Z,16.08
2019-04-03T15:49:04.182Z,16.05
2019-04-03T15:51:43.003Z,16.01
2019-04-03T15:54:31.462Z,15.94
2019-04-03T15:57:11.104Z,15.87
2019-04-03T15:59:42.351Z,15.74
2019-04-03T16:02:15.911Z,15.59
2019-04-03T16:04:50.921Z,15.55
2019-04-03T16:07:25.295Z,15.46
2019-04-03T16:09:57.957Z,15.42
2019-04-03T16:12:41.484Z,15.36
2019-04-03T16:15:10.591Z,15.39
2019-04-03T16:17:44.224Z,15.36
2019-04-03T16:20:19.543Z,15.31
2019-04-03T16:22:54.834Z,15.25
2019-04-03T16:25:26.662Z,15.12
2019-04-03T16:28:34.492Z,15.03
2019-04-03T16:32:18.188Z,14.96
2019-04-03T16:35:15.247Z,14.81
2019-04-03T16:37:49.647Z,14.59
2019-04-03T16:40:21.649Z,14.54
2019-04-03T16:42:55.241Z,14.51
2019-04-03T16:45:27.550Z,14.48
2019-04-03T16:48:04.290Z,14.39
2019-04-03T16:50:37.508Z,14.28
2019-04-03T16:53:19.209Z,14.22
2019-04-03T16:55:51.941Z,14.09
2019-04-03T16:58:27.714Z,13.98
2019-04-03T17:01:04.206Z,13.90
2019-04-03T17:03:44.820Z,13.80
2019-04-03T17:06:17.450Z,13.74
2019-04-03T17:08:57.992Z,13.70
2019-04-03T17:11:31.503Z,13.64
2019-04-03T17:14:06.430Z,13.53
2019-04-03T17:16:39.076Z,13.44
2019-04-03T17:19:12.305Z,13.31
2019-04-03T17:21:44.074Z,13.20
2019-04-03T17:24:21.299Z,13.04
2019-04-03T17:26:57.339Z,12.89
2019-04-03T17:29:30.939Z,12.73
2019-04-03T17:32:02.664Z,12.59
2019-04-03T17:34:41.932Z,12.49
2019-04-03T17:37:19.123Z,12.42
2019-04-03T17:39:52.553Z,12.37
2019-04-03T17:42:41.933Z,12.34
2019-04-03T17:45:23.383Z,12.22
2019-04-03T17:47:55.764Z,12.09
2019-04-03T17:50:29.707Z,11.96
2019-04-03T17:53:08.742Z,11.80
2019-04-03T17:55:53.199Z,11.68
2019-04-03T17:58:26.727Z,11.59
2019-04-03T18:00:59.403Z,11.57
2019-04-03T18:03:33.138Z,11.57
2019-04-03T18:06:11.455Z,11.48
2019-04-03T18:08:43.500Z,11.44
2019-04-03T18:11:20.836Z,11.48
2019-04-03T18:14:03.291Z,11.47
2019-04-03T18:16:40.254Z,11.40
2019-04-03T18:19:20.626Z,11.30
2019-04-03T18:21:57.623Z,11.23
2019-04-03T18:24:39.067Z,11.16
2019-04-03T18:27:13.811Z,11.14
2019-04-03T18:29:45.657Z,11.06
2019-04-03T18:32:17.582Z,11.01
2019-04-03T18:34:55.566Z,10.89
2019-04-03T18:37:29.351Z,10.76
2019-04-03T18:40:01.452Z,10.68
2019-04-03T18:42:37.863Z,10.62
2019-04-03T18:45:24.678Z,10.62
2019-04-03T18:47:51.035Z,10.59
2019-04-03T18:50:23.117Z,10.53
2019-04-03T18:53:06.229Z,10.53
2019-04-03T18:55:40.697Z,10.58
2019-04-03T18:58:27.909Z,10.59
2019-04-03T19:01:02.352Z,10.57
2019-04-03T19:03:40.748Z,10.56
2019-04-03T19:06:13.696Z,10.58
2019-04-03T19:08:45.924Z,10.59
2019-04-03T19:11:25.969Z,10.55
2019-04-03T19:13:59.081Z,10.48
2019-04-03T19:16:45.010Z,10.46
2019-04-03T19:19:12.397Z,10.37
2019-04-03T19:21:57.785Z,10.26
2019-04-03T19:24:30.100Z,10.21
2019-04-03T19:27:08.179Z,10.17
2019-04-03T19:29:53.957Z,10.11
2019-04-03T19:32:27.969Z,10.00
2019-04-03T19:35:21.174Z,9.91
2019-04-03T19:37:45.146Z,9.77
2019-04-03T19:40:17.698Z,9.67
2019-04-03T19:42:52.831Z,9.57
2019-04-03T19:45:29.343Z,9.49
2019-04-03T19:48:07.733Z,9.42
2019-04-03T19:50:50.474Z,9.33
2019-04-03T19:53:24.577Z,9.29
2019-04-03T19:56:10.165Z,9.24
2019-04-03T19:58:42.438Z,9.19
2019-04-03T20:01:17.565Z,9.20
2019-04-03T20:03:50.291Z,9.15
2019-04-03T20:06:22.910Z,9.13
2019-04-03T20:09:00.979Z,9.22
2019-04-03T20:11:35.912Z,9.32
2019-04-03T20:14:16.357Z,9.34
2019-04-03T20:16:48.068Z,9.28
2019-04-03T20:19:19.846Z,9.30
2019-04-03T20:21:51.652Z,9.45
2019-04-03T20:24:25.268Z,9.71
2019-04-03T20:26:57.918Z,9.95
2019-04-03T20:29:31.810Z,10.05
2019-04-03T20:32:05.053Z,10.24
2019-04-03T20:34:40.515Z,10.35
2019-04-03T20:37:26.019Z,10.38
2019-04-03T20:39:55.674Z,10.37
2019-04-03T20:42:30.890Z,10.36
2019-04-03T20:45:02.414Z,10.51
2019-04-03T20:47:36.362Z,10.55
2019-04-03T20:50:16.146Z,10.54
2019-04-03T20:52:47.667Z,10.51
2019-04-03T20:55:19.534Z,10.45
2019-04-03T20:57:55.924Z,10.37
2019-04-03T21:00:24.640Z,10.40
2019-04-03T21:02:55.964Z,10.39
2019-04-03T21:05:28.112Z,10.42
2019-04-03T21:07:58.945Z,10.45
2019-04-03T21:10:31.438Z,10.48
2019-04-03T21:13:03.553Z,10.62
2019-04-03T21:15:37.456Z,10.67
2019-04-03T21:18:09.337Z,10.76
2019-04-03T21:20:41.138Z,10.91
2019-04-03T21:23:18.565Z,10.86
2019-04-03T21:25:50.227Z,10.89
2019-04-03T21:28:21.098Z,10.82
2019-04-03T21:30:53.098Z,10.79
2019-04-03T21:33:25.095Z,10.84
2019-04-03T21:35:57.930Z,10.86
2019-04-03T21:38:29.994Z,10.84
2019-04-03T21:41:01.943Z,10.75
2019-04-03T21:43:33.899Z,10.71
2019-04-03T21:46:08.930Z,10.66
2019-04-03T21:48:40.756Z,10.54
2019-04-03T21:51:20.888Z,10.46
2019-04-03T21:53:56.585Z,10.33
2019-04-03T21:56:36.337Z,10.37
2019-04-03T21:59:10.946Z,10.30
2019-04-03T22:01:45.237Z,10.30
2019-04-03T22:04:15.308Z,10.31
2019-04-03T22:06:47.645Z,10.37
2019-04-03T22:09:23.837Z,10.35
2019-04-03T22:11:56.376Z,10.23
2019-04-03T22:14:34.677Z,10.20
2019-04-03T22:17:05.607Z,10.09
2019-04-03T22:19:36.458Z,10.00
2019-04-03T22:22:07.295Z,10.00
2019-04-03T22:24:38.418Z,9.99
2019-04-03T22:27:12.829Z,9.92
2019-04-03T22:29:50.892Z,9.91
2019-04-03T22:32:23.067Z,9.86
2019-04-03T22:35:07.366Z,9.74
2019-04-03T22:37:39.608Z,9.81
2019-04-03T22:40:13.405Z,9.91
2019-04-03T22:42:45.537Z,9.91
2019-04-03T22:45:18.072Z,9.95
2019-04-03T22:47:50.007Z,9.87
2019-04-03T22:50:21.102Z,9.73
2019-04-03T22:52:52.115Z,9.69
2019-04-03T22:55:26.610Z,9.63
2019-04-03T22:57:57.453Z,9.57
2019-04-03T23:00:29.388Z,9.57
2019-04-03T23:03:13.257Z,9.54
2019-04-03T23:05:48.522Z,9.60
2019-04-03T23:08:20.941Z,9.63
2019-04-03T23:10:52.954Z,9.56
2019-04-03T23:13:23.866Z,9.55
2019-04-03T23:15:54.745Z,9.51
2019-04-03T23:18:27.159Z,9.48
2019-04-03T23:20:58.099Z,9.45
2019-04-03T23:23:29.499Z,9.42
2019-04-03T23:26:03.631Z,9.28
2019-04-03T23:28:34.598Z,9.13
2019-04-03T23:31:05.489Z,9.03
2019-04-03T23:33:36.377Z,8.96
2019-04-03T23:36:07.279Z,8.93
2019-04-03T23:38:38.599Z,8.96
2019-04-03T23:41:12.197Z,9.04
2019-04-03T23:43:43.083Z,9.01
2019-04-03T23:46:14.691Z,9.11
2019-04-03T23:48:47.024Z,9.22
2019-04-03T23:51:23.337Z,9.35
2019-04-03T23:53:52.378Z,9.29
2019-04-03T23:56:23.346Z,9.26
2019-04-03T23:58:54.221Z,9.16
